sensor_id;sensor_type;location;lat;lon;timestamp;P1;durP1;ratioP1;P2;durP2;ratioP2
19679;SDS011;9989;48.962;9.182;2023-02-28T00:01:03;11.23;;;6.13;;
19679;SDS011;9989;48.962;9.182;2023-02-28T00:03:29;12.77;;;5.87;;
19679;SDS011;9989;48.962;9.182;2023-02-28T00:05:55;11.93;;;5.63;;
19679;SDS011;9989;48.962;9.182;2023-02-28T00:08:20;10.13;;;5.63;;
19679;SDS011;9989;48.962;9.182;2023-02-28T00:10:46;11.30;;;6.20;;
19679;SDS011;9989;48.962;9.182;2023-02-28T00:13:11;10.73;;;6.43;;
19679;SDS011;9989;48.962;9.182;2023-02-28T00:15:38;14.67;;;7.23;;
19679;SDS011;9989;48.962;9.182;2023-02-28T00:18:03;12.70;;;7.80;;
19679;SDS011;9989;48.962;9.182;2023-02-28T00:20:30;12.17;;;7.13;;
19679;SDS011;9989;48.962;9.182;2023-02-28T00:22:55;12.43;;;6.27;;
19679;SDS011;9989;48.962;9.182;2023-02-28T00:25:22;10.17;;;5.47;;
19679;SDS011;9989;48.962;9.182;2023-02-28T00:27:49;11.10;;;6.30;;
19679;SDS011;9989;48.962;9.182;2023-02-28T00:30:16;12.00;;;6.23;;
19679;SDS011;9989;48.962;9.182;2023-02-28T00:32:47;10.43;;;5.60;;
19679;SDS011;9989;48.962;9.182;2023-02-28T00:35:14;10.87;;;6.10;;
19679;SDS011;9989;48.962;9.182;2023-02-28T00:37:40;10.27;;;6.40;;
19679;SDS011;9989;48.962;9.182;2023-02-28T00:40:06;10.83;;;5.97;;
19679;SDS011;9989;48.962;9.182;2023-02-28T00:42:33;12.70;;;6.83;;
19679;SDS011;9989;48.962;9.182;2023-02-28T00:44:59;9.53;;;6.33;;
19679;SDS011;9989;48.962;9.182;2023-02-28T00:47:25;15.23;;;6.47;;
19679;SDS011;9989;48.962;9.182;2023-02-28T00:49:51;9.43;;;5.70;;
19679;SDS011;9989;48.962;9.182;2023-02-28T00:52:17;12.63;;;6.70;;
19679;SDS011;9989;48.962;9.182;2023-02-28T00:54:42;11.73;;;6.50;;
19679;SDS011;9989;48.962;9.182;2023-02-28T00:57:08;11.00;;;5.93;;
19679;SDS011;9989;48.962;9.182;2023-02-28T00:59:33;10.33;;;6.50;;
19679;SDS011;9989;48.962;9.182;2023-02-28T01:01:59;10.97;;;6.53;;
19679;SDS011;9989;48.962;9.182;2023-02-28T01:04:25;10.80;;;6.13;;
19679;SDS011;9989;48.962;9.182;2023-02-28T01:06:50;11.80;;;6.57;;
19679;SDS011;9989;48.962;9.182;2023-02-28T01:09:16;12.83;;;6.53;;
19679;SDS011;9989;48.962;9.182;2023-02-28T01:11:42;15.37;;;6.50;;
19679;SDS011;9989;48.962;9.182;2023-02-28T01:14:10;11.07;;;6.60;;
19679;SDS011;9989;48.962;9.182;2023-02-28T01:16:41;12.73;;;6.30;;
19679;SDS011;9989;48.962;9.182;2023-02-28T01:19:06;10.90;;;6.50;;
19679;SDS011;9989;48.962;9.182;2023-02-28T01:21:32;11.27;;;6.87;;
19679;SDS011;9989;48.962;9.182;2023-02-28T01:23:59;10.53;;;6.27;;
19679;SDS011;9989;48.962;9.182;2023-02-28T01:26:25;12.37;;;6.97;;
19679;SDS011;9989;48.962;9.182;2023-02-28T01:28:51;11.10;;;6.40;;
19679;SDS011;9989;48.962;9.182;2023-02-28T01:31:18;10.97;;;6.07;;
19679;SDS011;9989;48.962;9.182;2023-02-28T01:33:44;10.07;;;6.13;;
19679;SDS011;9989;48.962;9.182;2023-02-28T01:38:36;11.43;;;6.57;;
19679;SDS011;9989;48.962;9.182;2023-02-28T01:41:02;11.50;;;6.97;;
19679;SDS011;9989;48.962;9.182;2023-02-28T01:46:19;11.27;;;6.63;;
19679;SDS011;9989;48.962;9.182;2023-02-28T01:48:47;11.33;;;6.20;;
19679;SDS011;9989;48.962;9.182;2023-02-28T01:51:21;10.00;;;5.33;;
19679;SDS011;9989;48.962;9.182;2023-02-28T01:54:01;12.57;;;6.83;;
19679;SDS011;9989;48.962;9.182;2023-02-28T01:56:30;11.03;;;6.67;;
19679;SDS011;9989;48.962;9.182;2023-02-28T01:58:59;12.27;;;6.67;;
19679;SDS011;9989;48.962;9.182;2023-02-28T02:01:25;10.80;;;6.00;;
19679;SDS011;9989;48.962;9.182;2023-02-28T02:03:53;13.07;;;6.57;;
19679;SDS011;9989;48.962;9.182;2023-02-28T02:06:22;11.90;;;6.10;;
19679;SDS011;9989;48.962;9.182;2023-02-28T02:08:49;11.60;;;7.03;;
19679;SDS011;9989;48.962;9.182;2023-02-28T02:11:17;11.20;;;6.33;;
19679;SDS011;9989;48.962;9.182;2023-02-28T02:24:08;11.50;;;6.47;;
19679;SDS011;9989;48.962;9.182;2023-02-28T02:29:36;11.77;;;6.13;;
19679;SDS011;9989;48.962;9.182;2023-02-28T02:38:47;12.77;;;6.40;;
19679;SDS011;9989;48.962;9.182;2023-02-28T02:43:53;12.83;;;7.00;;
19679;SDS011;9989;48.962;9.182;2023-02-28T02:46:39;13.93;;;6.80;;
19679;SDS011;9989;48.962;9.182;2023-02-28T02:49:09;12.53;;;7.60;;
19679;SDS011;9989;48.962;9.182;2023-02-28T02:51:39;13.77;;;7.07;;
19679;SDS011;9989;48.962;9.182;2023-02-28T02:54:11;13.20;;;7.17;;
19679;SDS011;9989;48.962;9.182;2023-02-28T02:56:52;13.87;;;7.00;;
19679;SDS011;9989;48.962;9.182;2023-02-28T02:59:20;11.97;;;7.17;;
19679;SDS011;9989;48.962;9.182;2023-02-28T03:01:49;15.27;;;7.27;;
19679;SDS011;9989;48.962;9.182;2023-02-28T03:04:18;12.70;;;7.00;;
19679;SDS011;9989;48.962;9.182;2023-02-28T03:06:46;14.60;;;7.97;;
19679;SDS011;9989;48.962;9.182;2023-02-28T03:09:12;12.90;;;6.40;;
19679;SDS011;9989;48.962;9.182;2023-02-28T03:11:38;13.77;;;6.67;;
19679;SDS011;9989;48.962;9.182;2023-02-28T03:27:09;13.23;;;7.57;;
19679;SDS011;9989;48.962;9.182;2023-02-28T03:30:05;11.83;;;6.77;;
19679;SDS011;9989;48.962;9.182;2023-02-28T03:32:53;13.77;;;7.17;;
19679;SDS011;9989;48.962;9.182;2023-02-28T03:35:23;11.83;;;6.77;;
19679;SDS011;9989;48.962;9.182;2023-02-28T03:38:06;11.83;;;6.47;;
19679;SDS011;9989;48.962;9.182;2023-02-28T03:40:44;13.10;;;6.43;;
19679;SDS011;9989;48.962;9.182;2023-02-28T03:43:15;12.87;;;6.73;;
19679;SDS011;9989;48.962;9.182;2023-02-28T03:45:44;12.83;;;6.53;;
19679;SDS011;9989;48.962;9.182;2023-02-28T03:48:15;11.97;;;6.00;;
19679;SDS011;9989;48.962;9.182;2023-02-28T03:50:47;13.80;;;6.53;;
19679;SDS011;9989;48.962;9.182;2023-02-28T03:53:21;12.87;;;7.10;;
19679;SDS011;9989;48.962;9.182;2023-02-28T03:55:55;12.40;;;6.87;;
19679;SDS011;9989;48.962;9.182;2023-02-28T03:58:51;13.87;;;7.57;;
19679;SDS011;9989;48.962;9.182;2023-02-28T04:03:52;12.40;;;6.47;;
19679;SDS011;9989;48.962;9.182;2023-02-28T04:06:20;12.50;;;6.73;;
19679;SDS011;9989;48.962;9.182;2023-02-28T04:08:47;16.23;;;7.23;;
19679;SDS011;9989;48.962;9.182;2023-02-28T04:13:44;13.20;;;7.63;;
19679;SDS011;9989;48.962;9.182;2023-02-28T04:16:10;13.33;;;7.47;;
19679;SDS011;9989;48.962;9.182;2023-02-28T04:18:46;15.40;;;7.07;;
19679;SDS011;9989;48.962;9.182;2023-02-28T04:21:12;15.10;;;6.87;;
19679;SDS011;9989;48.962;9.182;2023-02-28T04:23:41;13.77;;;7.13;;
19679;SDS011;9989;48.962;9.182;2023-02-28T04:26:06;14.73;;;7.10;;
19679;SDS011;9989;48.962;9.182;2023-02-28T04:28:32;15.03;;;7.87;;
19679;SDS011;9989;48.962;9.182;2023-02-28T04:31:03;15.57;;;8.17;;
19679;SDS011;9989;48.962;9.182;2023-02-28T04:33:30;14.00;;;7.27;;
19679;SDS011;9989;48.962;9.182;2023-02-28T04:35:57;16.47;;;7.93;;
19679;SDS011;9989;48.962;9.182;2023-02-28T04:38:34;13.33;;;7.33;;
19679;SDS011;9989;48.962;9.182;2023-02-28T04:41:01;25.70;;;13.07;;
19679;SDS011;9989;48.962;9.182;2023-02-28T04:43:27;21.00;;;10.63;;
19679;SDS011;9989;48.962;9.182;2023-02-28T04:45:54;16.60;;;9.87;;
19679;SDS011;9989;48.962;9.182;2023-02-28T04:48:27;12.93;;;7.57;;
19679;SDS011;9989;48.962;9.182;2023-02-28T04:50:53;14.40;;;7.53;;
19679;SDS011;9989;48.962;9.182;2023-02-28T04:53:19;15.13;;;8.03;;
19679;SDS011;9989;48.962;9.182;2023-02-28T04:55:46;15.70;;;8.57;;
19679;SDS011;9989;48.962;9.182;2023-02-28T04:58:12;17.03;;;8.83;;
19679;SDS011;9989;48.962;9.182;2023-02-28T05:00:38;14.20;;;7.70;;
19679;SDS011;9989;48.962;9.182;2023-02-28T05:03:04;14.23;;;8.43;;
19679;SDS011;9989;48.962;9.182;2023-02-28T05:05:29;22.07;;;11.70;;
19679;SDS011;9989;48.962;9.182;2023-02-28T05:07:55;16.07;;;10.23;;
19679;SDS011;9989;48.962;9.182;2023-02-28T05:10:21;17.67;;;10.00;;
19679;SDS011;9989;48.962;9.182;2023-02-28T05:12:47;18.40;;;10.00;;
19679;SDS011;9989;48.962;9.182;2023-02-28T05:15:14;16.60;;;8.70;;
19679;SDS011;9989;48.962;9.182;2023-02-28T05:17:41;15.33;;;8.40;;
19679;SDS011;9989;48.962;9.182;2023-02-28T05:20:07;20.10;;;8.90;;
19679;SDS011;9989;48.962;9.182;2023-02-28T05:22:35;18.00;;;8.67;;
19679;SDS011;9989;48.962;9.182;2023-02-28T05:25:02;14.97;;;8.27;;
19679;SDS011;9989;48.962;9.182;2023-02-28T05:27:32;13.47;;;7.87;;
19679;SDS011;9989;48.962;9.182;2023-02-28T05:29:58;13.97;;;7.90;;
19679;SDS011;9989;48.962;9.182;2023-02-28T05:32:24;18.60;;;8.97;;
19679;SDS011;9989;48.962;9.182;2023-02-28T05:34:50;19.80;;;10.03;;
19679;SDS011;9989;48.962;9.182;2023-02-28T05:37:15;17.57;;;8.37;;
19679;SDS011;9989;48.962;9.182;2023-02-28T05:39:41;15.50;;;8.30;;
19679;SDS011;9989;48.962;9.182;2023-02-28T05:42:07;13.47;;;7.67;;
19679;SDS011;9989;48.962;9.182;2023-02-28T05:44:34;15.57;;;7.70;;
19679;SDS011;9989;48.962;9.182;2023-02-28T05:46:59;15.97;;;8.30;;
19679;SDS011;9989;48.962;9.182;2023-02-28T05:49:25;15.87;;;7.50;;
19679;SDS011;9989;48.962;9.182;2023-02-28T05:51:51;16.10;;;7.70;;
19679;SDS011;9989;48.962;9.182;2023-02-28T05:54:16;13.80;;;7.67;;
19679;SDS011;9989;48.962;9.182;2023-02-28T05:56:42;14.17;;;7.93;;
19679;SDS011;9989;48.962;9.182;2023-02-28T05:59:10;15.50;;;8.37;;
19679;SDS011;9989;48.962;9.182;2023-02-28T06:01:44;14.47;;;7.43;;
19679;SDS011;9989;48.962;9.182;2023-02-28T06:04:13;13.53;;;8.03;;
19679;SDS011;9989;48.962;9.182;2023-02-28T06:06:43;16.87;;;8.83;;
19679;SDS011;9989;48.962;9.182;2023-02-28T06:09:09;15.63;;;8.47;;
19679;SDS011;9989;48.962;9.182;2023-02-28T06:11:35;14.67;;;7.97;;
19679;SDS011;9989;48.962;9.182;2023-02-28T06:14:01;16.03;;;8.47;;
19679;SDS011;9989;48.962;9.182;2023-02-28T06:16:28;16.60;;;8.87;;
19679;SDS011;9989;48.962;9.182;2023-02-28T06:18:57;16.67;;;8.43;;
19679;SDS011;9989;48.962;9.182;2023-02-28T06:21:23;15.30;;;8.73;;
19679;SDS011;9989;48.962;9.182;2023-02-28T06:23:49;15.43;;;8.97;;
19679;SDS011;9989;48.962;9.182;2023-02-28T06:26:15;16.13;;;8.70;;
19679;SDS011;9989;48.962;9.182;2023-02-28T06:28:41;15.13;;;7.63;;
19679;SDS011;9989;48.962;9.182;2023-02-28T06:31:11;15.27;;;8.57;;
19679;SDS011;9989;48.962;9.182;2023-02-28T06:33:38;17.07;;;8.80;;
19679;SDS011;9989;48.962;9.182;2023-02-28T06:36:05;14.47;;;8.20;;
19679;SDS011;9989;48.962;9.182;2023-02-28T06:38:32;14.93;;;8.57;;
19679;SDS011;9989;48.962;9.182;2023-02-28T06:40:58;16.70;;;7.90;;
19679;SDS011;9989;48.962;9.182;2023-02-28T06:43:25;17.17;;;8.23;;
19679;SDS011;9989;48.962;9.182;2023-02-28T06:45:57;16.63;;;8.63;;
19679;SDS011;9989;48.962;9.182;2023-02-28T06:48:24;14.17;;;8.70;;
19679;SDS011;9989;48.962;9.182;2023-02-28T06:50:51;15.70;;;8.60;;
19679;SDS011;9989;48.962;9.182;2023-02-28T06:53:17;20.17;;;8.77;;
19679;SDS011;9989;48.962;9.182;2023-02-28T06:55:43;16.60;;;8.50;;
19679;SDS011;9989;48.962;9.182;2023-02-28T06:58:08;14.87;;;8.37;;
19679;SDS011;9989;48.962;9.182;2023-02-28T07:00:43;15.63;;;8.27;;
19679;SDS011;9989;48.962;9.182;2023-02-28T07:03:10;15.70;;;8.37;;
19679;SDS011;9989;48.962;9.182;2023-02-28T07:05:37;16.00;;;8.80;;
19679;SDS011;9989;48.962;9.182;2023-02-28T07:08:03;17.43;;;9.33;;
19679;SDS011;9989;48.962;9.182;2023-02-28T07:10:31;20.07;;;9.37;;
19679;SDS011;9989;48.962;9.182;2023-02-28T07:12:57;18.73;;;9.63;;
19679;SDS011;9989;48.962;9.182;2023-02-28T07:15:23;18.20;;;9.10;;
19679;SDS011;9989;48.962;9.182;2023-02-28T07:17:49;17.33;;;8.43;;
19679;SDS011;9989;48.962;9.182;2023-02-28T07:20:15;17.23;;;9.53;;
19679;SDS011;9989;48.962;9.182;2023-02-28T07:22:41;16.60;;;8.83;;
19679;SDS011;9989;48.962;9.182;2023-02-28T07:25:07;16.80;;;8.83;;
19679;SDS011;9989;48.962;9.182;2023-02-28T07:27:33;18.73;;;9.77;;
19679;SDS011;9989;48.962;9.182;2023-02-28T07:29:59;17.90;;;10.70;;
19679;SDS011;9989;48.962;9.182;2023-02-28T07:32:26;19.97;;;10.33;;
19679;SDS011;9989;48.962;9.182;2023-02-28T07:34:52;18.83;;;11.10;;
19679;SDS011;9989;48.962;9.182;2023-02-28T07:37:19;22.27;;;11.53;;
19679;SDS011;9989;48.962;9.182;2023-02-28T07:39:45;17.97;;;10.00;;
19679;SDS011;9989;48.962;9.182;2023-02-28T07:42:11;17.83;;;9.90;;
19679;SDS011;9989;48.962;9.182;2023-02-28T07:44:40;18.20;;;9.77;;
19679;SDS011;9989;48.962;9.182;2023-02-28T07:47:10;17.90;;;10.77;;
19679;SDS011;9989;48.962;9.182;2023-02-28T07:49:36;18.33;;;9.33;;
19679;SDS011;9989;48.962;9.182;2023-02-28T07:52:02;16.17;;;9.50;;
19679;SDS011;9989;48.962;9.182;2023-02-28T07:54:29;23.03;;;10.17;;
19679;SDS011;9989;48.962;9.182;2023-02-28T07:56:55;19.67;;;9.50;;
19679;SDS011;9989;48.962;9.182;2023-02-28T07:59:20;17.57;;;10.17;;
19679;SDS011;9989;48.962;9.182;2023-02-28T08:01:46;18.17;;;9.47;;
19679;SDS011;9989;48.962;9.182;2023-02-28T08:04:14;17.47;;;9.80;;
19679;SDS011;9989;48.962;9.182;2023-02-28T08:06:40;20.83;;;10.40;;
19679;SDS011;9989;48.962;9.182;2023-02-28T08:09:05;21.30;;;12.17;;
19679;SDS011;9989;48.962;9.182;2023-02-28T08:11:31;27.97;;;15.57;;
19679;SDS011;9989;48.962;9.182;2023-02-28T08:13:56;21.33;;;11.37;;
19679;SDS011;9989;48.962;9.182;2023-02-28T08:16:22;16.43;;;9.30;;
19679;SDS011;9989;48.962;9.182;2023-02-28T08:18:48;19.73;;;11.50;;
19679;SDS011;9989;48.962;9.182;2023-02-28T08:21:15;17.40;;;10.10;;
19679;SDS011;9989;48.962;9.182;2023-02-28T08:23:41;18.23;;;10.03;;
19679;SDS011;9989;48.962;9.182;2023-02-28T08:26:06;19.57;;;10.63;;
19679;SDS011;9989;48.962;9.182;2023-02-28T08:28:32;18.37;;;10.47;;
19679;SDS011;9989;48.962;9.182;2023-02-28T08:30:58;19.23;;;11.07;;
19679;SDS011;9989;48.962;9.182;2023-02-28T08:33:24;21.70;;;10.87;;
19679;SDS011;9989;48.962;9.182;2023-02-28T08:35:54;19.03;;;10.03;;
19679;SDS011;9989;48.962;9.182;2023-02-28T08:38:20;19.73;;;10.63;;
19679;SDS011;9989;48.962;9.182;2023-02-28T08:40:46;18.07;;;10.97;;
19679;SDS011;9989;48.962;9.182;2023-02-28T08:43:11;20.07;;;11.17;;
19679;SDS011;9989;48.962;9.182;2023-02-28T08:45:37;20.73;;;11.23;;
19679;SDS011;9989;48.962;9.182;2023-02-28T08:48:03;22.73;;;13.23;;
19679;SDS011;9989;48.962;9.182;2023-02-28T08:50:29;21.87;;;11.60;;
19679;SDS011;9989;48.962;9.182;2023-02-28T08:52:54;23.07;;;12.63;;
19679;SDS011;9989;48.962;9.182;2023-02-28T08:55:20;21.67;;;12.13;;
19679;SDS011;9989;48.962;9.182;2023-02-28T08:57:45;22.83;;;12.33;;
19679;SDS011;9989;48.962;9.182;2023-02-28T09:00:11;20.37;;;11.37;;
19679;SDS011;9989;48.962;9.182;2023-02-28T09:02:38;24.23;;;12.93;;
19679;SDS011;9989;48.962;9.182;2023-02-28T09:05:05;21.37;;;12.03;;
19679;SDS011;9989;48.962;9.182;2023-02-28T09:07:31;16.17;;;10.10;;
19679;SDS011;9989;48.962;9.182;2023-02-28T09:09:56;16.30;;;9.40;;
19679;SDS011;9989;48.962;9.182;2023-02-28T09:12:26;20.07;;;11.03;;
19679;SDS011;9989;48.962;9.182;2023-02-28T09:14:53;14.80;;;9.13;;
19679;SDS011;9989;48.962;9.182;2023-02-28T09:17:19;18.53;;;10.10;;
19679;SDS011;9989;48.962;9.182;2023-02-28T09:19:45;16.37;;;9.40;;
19679;SDS011;9989;48.962;9.182;2023-02-28T09:22:13;16.27;;;9.37;;
19679;SDS011;9989;48.962;9.182;2023-02-28T09:24:39;19.93;;;11.97;;
19679;SDS011;9989;48.962;9.182;2023-02-28T09:27:05;19.00;;;11.40;;
19679;SDS011;9989;48.962;9.182;2023-02-28T09:29:31;20.10;;;12.77;;
19679;SDS011;9989;48.962;9.182;2023-02-28T09:31:58;20.50;;;12.20;;
19679;SDS011;9989;48.962;9.182;2023-02-28T09:34:25;18.43;;;11.23;;
19679;SDS011;9989;48.962;9.182;2023-02-28T09:36:51;16.07;;;9.70;;
19679;SDS011;9989;48.962;9.182;2023-02-28T09:39:19;15.97;;;9.67;;
19679;SDS011;9989;48.962;9.182;2023-02-28T09:41:47;18.57;;;11.27;;
19679;SDS011;9989;48.962;9.182;2023-02-28T09:44:21;16.83;;;10.03;;
19679;SDS011;9989;48.962;9.182;2023-02-28T09:46:52;18.93;;;10.43;;
19679;SDS011;9989;48.962;9.182;2023-02-28T09:49:25;16.70;;;9.73;;
19679;SDS011;9989;48.962;9.182;2023-02-28T09:52:02;18.50;;;10.83;;
19679;SDS011;9989;48.962;9.182;2023-02-28T09:54:35;19.27;;;10.77;;
19679;SDS011;9989;48.962;9.182;2023-02-28T09:57:06;19.13;;;11.00;;
19679;SDS011;9989;48.962;9.182;2023-02-28T09:59:44;20.30;;;11.47;;
19679;SDS011;9989;48.962;9.182;2023-02-28T10:05:00;17.83;;;10.00;;
19679;SDS011;9989;48.962;9.182;2023-02-28T10:07:55;20.43;;;10.97;;
19679;SDS011;9989;48.962;9.182;2023-02-28T10:13:05;20.83;;;10.67;;
19679;SDS011;9989;48.962;9.182;2023-02-28T10:15:38;18.63;;;11.00;;
19679;SDS011;9989;48.962;9.182;2023-02-28T10:18:04;20.60;;;11.40;;
19679;SDS011;9989;48.962;9.182;2023-02-28T10:20:46;20.50;;;11.47;;
19679;SDS011;9989;48.962;9.182;2023-02-28T10:23:20;19.83;;;11.70;;
19679;SDS011;9989;48.962;9.182;2023-02-28T10:25:57;18.67;;;11.60;;
19679;SDS011;9989;48.962;9.182;2023-02-28T10:28:25;17.17;;;10.73;;
19679;SDS011;9989;48.962;9.182;2023-02-28T10:30:53;18.43;;;11.63;;
19679;SDS011;9989;48.962;9.182;2023-02-28T10:33:25;17.40;;;10.13;;
19679;SDS011;9989;48.962;9.182;2023-02-28T10:35:55;20.67;;;11.20;;
19679;SDS011;9989;48.962;9.182;2023-02-28T10:38:25;18.03;;;10.90;;
19679;SDS011;9989;48.962;9.182;2023-02-28T10:41:04;19.07;;;11.37;;
19679;SDS011;9989;48.962;9.182;2023-02-28T10:43:34;17.30;;;10.87;;
19679;SDS011;9989;48.962;9.182;2023-02-28T10:48:43;20.47;;;10.67;;
19679;SDS011;9989;48.962;9.182;2023-02-28T10:51:14;21.10;;;11.33;;
19679;SDS011;9989;48.962;9.182;2023-02-28T10:53:51;21.10;;;12.07;;
19679;SDS011;9989;48.962;9.182;2023-02-28T10:56:19;16.77;;;10.43;;
19679;SDS011;9989;48.962;9.182;2023-02-28T11:02:08;18.70;;;10.67;;
19679;SDS011;9989;48.962;9.182;2023-02-28T11:09:53;19.90;;;10.47;;
19679;SDS011;9989;48.962;9.182;2023-02-28T11:12:37;19.23;;;10.83;;
19679;SDS011;9989;48.962;9.182;2023-02-28T11:15:05;15.80;;;10.13;;
19679;SDS011;9989;48.962;9.182;2023-02-28T11:18:36;14.90;;;9.30;;
19679;SDS011;9989;48.962;9.182;2023-02-28T11:20:37;15.67;;;9.90;;
19679;SDS011;9989;48.962;9.182;2023-02-28T11:23:04;14.43;;;8.73;;
19679;SDS011;9989;48.962;9.182;2023-02-28T11:25:37;16.00;;;10.77;;
19679;SDS011;9989;48.962;9.182;2023-02-28T11:28:04;17.27;;;10.27;;
19679;SDS011;9989;48.962;9.182;2023-02-28T11:30:49;15.07;;;10.23;;
19679;SDS011;9989;48.962;9.182;2023-02-28T11:36:14;15.97;;;9.83;;
19679;SDS011;9989;48.962;9.182;2023-02-28T11:38:51;12.90;;;8.57;;
19679;SDS011;9989;48.962;9.182;2023-02-28T12:00:59;13.60;;;9.50;;
19679;SDS011;9989;48.962;9.182;2023-02-28T12:03:01;15.17;;;10.37;;
19679;SDS011;9989;48.962;9.182;2023-02-28T12:06:28;13.73;;;8.83;;
19679;SDS011;9989;48.962;9.182;2023-02-28T12:14:29;13.27;;;9.47;;
19679;SDS011;9989;48.962;9.182;2023-02-28T12:27:49;14.32;;;9.90;;
19679;SDS011;9989;48.962;9.182;2023-02-28T12:33:01;13.13;;;9.30;;
19679;SDS011;9989;48.962;9.182;2023-02-28T12:35:47;12.87;;;9.07;;
19679;SDS011;9989;48.962;9.182;2023-02-28T12:38:24;13.77;;;9.17;;
19679;SDS011;9989;48.962;9.182;2023-02-28T12:41:10;11.87;;;8.47;;
19679;SDS011;9989;48.962;9.182;2023-02-28T12:43:55;12.10;;;8.90;;
19679;SDS011;9989;48.962;9.182;2023-02-28T12:46:28;13.23;;;9.23;;
19679;SDS011;9989;48.962;9.182;2023-02-28T12:49:17;12.90;;;8.67;;
19679;SDS011;9989;48.962;9.182;2023-02-28T12:51:55;11.50;;;7.93;;
19679;SDS011;9989;48.962;9.182;2023-02-28T12:54:25;13.52;;;9.40;;
19679;SDS011;9989;48.962;9.182;2023-02-28T12:59:46;14.13;;;9.33;;
19679;SDS011;9989;48.962;9.182;2023-02-28T13:10:48;14.67;;;9.83;;
19679;SDS011;9989;48.962;9.182;2023-02-28T13:13:23;15.67;;;9.83;;
19679;SDS011;9989;48.962;9.182;2023-02-28T13:16:10;16.43;;;9.37;;
19679;SDS011;9989;48.962;9.182;2023-02-28T13:18:39;15.23;;;9.90;;
19679;SDS011;9989;48.962;9.182;2023-02-28T13:21:09;16.20;;;9.77;;
19679;SDS011;9989;48.962;9.182;2023-02-28T13:27:09;14.47;;;9.87;;
19679;SDS011;9989;48.962;9.182;2023-02-28T13:34:30;14.63;;;8.97;;
19679;SDS011;9989;48.962;9.182;2023-02-28T13:39:52;14.87;;;9.13;;
19679;SDS011;9989;48.962;9.182;2023-02-28T13:42:33;14.27;;;9.30;;
19679;SDS011;9989;48.962;9.182;2023-02-28T13:47:28;12.37;;;8.20;;
19679;SDS011;9989;48.962;9.182;2023-02-28T13:55:43;13.07;;;9.03;;
19679;SDS011;9989;48.962;9.182;2023-02-28T14:03:43;14.70;;;9.57;;
19679;SDS011;9989;48.962;9.182;2023-02-28T14:06:32;15.17;;;10.53;;
19679;SDS011;9989;48.962;9.182;2023-02-28T14:09:00;15.57;;;9.87;;
19679;SDS011;9989;48.962;9.182;2023-02-28T14:13:58;13.37;;;9.37;;
19679;SDS011;9989;48.962;9.182;2023-02-28T14:17:08;13.23;;;9.77;;
19679;SDS011;9989;48.962;9.182;2023-02-28T14:19:25;16.40;;;10.27;;
19679;SDS011;9989;48.962;9.182;2023-02-28T14:22:03;15.23;;;10.13;;
19679;SDS011;9989;48.962;9.182;2023-02-28T14:24:45;15.90;;;10.40;;
19679;SDS011;9989;48.962;9.182;2023-02-28T14:38:26;17.23;;;10.33;;
19679;SDS011;9989;48.962;9.182;2023-02-28T14:40:56;14.43;;;9.80;;
19679;SDS011;9989;48.962;9.182;2023-02-28T14:43:26;17.17;;;10.20;;
19679;SDS011;9989;48.962;9.182;2023-02-28T14:46:00;18.30;;;9.93;;
19679;SDS011;9989;48.962;9.182;2023-02-28T14:48:27;15.27;;;9.50;;
19679;SDS011;9989;48.962;9.182;2023-02-28T14:50:55;15.93;;;10.17;;
19679;SDS011;9989;48.962;9.182;2023-02-28T14:53:23;15.33;;;10.33;;
19679;SDS011;9989;48.962;9.182;2023-02-28T14:55:52;16.37;;;11.13;;
19679;SDS011;9989;48.962;9.182;2023-02-28T15:00:53;13.83;;;9.83;;
19679;SDS011;9989;48.962;9.182;2023-02-28T15:03:31;14.57;;;10.30;;
19679;SDS011;9989;48.962;9.182;2023-02-28T15:06:03;14.13;;;9.83;;
19679;SDS011;9989;48.962;9.182;2023-02-28T15:08:39;15.03;;;10.63;;
19679;SDS011;9989;48.962;9.182;2023-02-28T15:11:06;15.03;;;10.43;;
19679;SDS011;9989;48.962;9.182;2023-02-28T15:13:39;14.47;;;9.67;;
19679;SDS011;9989;48.962;9.182;2023-02-28T15:16:21;24.87;;;9.97;;
19679;SDS011;9989;48.962;9.182;2023-02-28T15:21:28;20.77;;;12.60;;
19679;SDS011;9989;48.962;9.182;2023-02-28T15:23:58;21.17;;;14.07;;
19679;SDS011;9989;48.962;9.182;2023-02-28T15:26:33;38.77;;;20.77;;
19679;SDS011;9989;48.962;9.182;2023-02-28T15:29:07;32.67;;;18.33;;
19679;SDS011;9989;48.962;9.182;2023-02-28T15:31:41;23.00;;;13.43;;
19679;SDS011;9989;48.962;9.182;2023-02-28T15:34:36;45.37;;;22.00;;
19679;SDS011;9989;48.962;9.182;2023-02-28T15:40:07;22.07;;;12.97;;
19679;SDS011;9989;48.962;9.182;2023-02-28T15:42:38;18.87;;;10.33;;
19679;SDS011;9989;48.962;9.182;2023-02-28T15:45:04;18.07;;;11.10;;
19679;SDS011;9989;48.962;9.182;2023-02-28T15:47:30;15.07;;;10.83;;
19679;SDS011;9989;48.962;9.182;2023-02-28T15:52:27;15.53;;;11.43;;
19679;SDS011;9989;48.962;9.182;2023-02-28T15:55:39;16.73;;;10.80;;
19679;SDS011;9989;48.962;9.182;2023-02-28T15:58:00;14.97;;;10.37;;
19679;SDS011;9989;48.962;9.182;2023-02-28T16:00:30;15.13;;;10.20;;
19679;SDS011;9989;48.962;9.182;2023-02-28T16:02:57;16.60;;;10.30;;
19679;SDS011;9989;48.962;9.182;2023-02-28T16:05:27;15.47;;;9.57;;
19679;SDS011;9989;48.962;9.182;2023-02-28T16:07:59;17.40;;;10.60;;
19679;SDS011;9989;48.962;9.182;2023-02-28T16:10:27;20.07;;;11.10;;
19679;SDS011;9989;48.962;9.182;2023-02-28T16:12:54;17.57;;;11.10;;
19679;SDS011;9989;48.962;9.182;2023-02-28T16:15:26;17.77;;;12.07;;
19679;SDS011;9989;48.962;9.182;2023-02-28T16:17:53;16.83;;;10.70;;
19679;SDS011;9989;48.962;9.182;2023-02-28T16:20:39;19.50;;;12.03;;
19679;SDS011;9989;48.962;9.182;2023-02-28T16:23:04;19.57;;;10.93;;
19679;SDS011;9989;48.962;9.182;2023-02-28T16:25:34;24.23;;;12.93;;
19679;SDS011;9989;48.962;9.182;2023-02-28T16:28:02;18.77;;;11.60;;
19679;SDS011;9989;48.962;9.182;2023-02-28T16:30:28;16.67;;;10.97;;
19679;SDS011;9989;48.962;9.182;2023-02-28T16:32:57;21.10;;;11.77;;
19679;SDS011;9989;48.962;9.182;2023-02-28T16:35:23;21.43;;;13.07;;
19679;SDS011;9989;48.962;9.182;2023-02-28T16:37:52;21.27;;;12.20;;
19679;SDS011;9989;48.962;9.182;2023-02-28T16:40:20;19.70;;;12.37;;
19679;SDS011;9989;48.962;9.182;2023-02-28T16:42:52;18.57;;;11.97;;
19679;SDS011;9989;48.962;9.182;2023-02-28T16:45:22;22.60;;;12.40;;
19679;SDS011;9989;48.962;9.182;2023-02-28T16:47:49;26.70;;;15.87;;
19679;SDS011;9989;48.962;9.182;2023-02-28T16:52:49;23.67;;;15.10;;
19679;SDS011;9989;48.962;9.182;2023-02-28T16:55:17;25.53;;;15.77;;
19679;SDS011;9989;48.962;9.182;2023-02-28T16:57:43;23.60;;;15.27;;
19679;SDS011;9989;48.962;9.182;2023-02-28T17:00:13;22.77;;;13.80;;
19679;SDS011;9989;48.962;9.182;2023-02-28T17:02:39;21.37;;;14.33;;
19679;SDS011;9989;48.962;9.182;2023-02-28T17:05:05;23.03;;;14.23;;
19679;SDS011;9989;48.962;9.182;2023-02-28T17:07:31;24.53;;;15.83;;
19679;SDS011;9989;48.962;9.182;2023-02-28T17:09:57;22.27;;;13.90;;
19679;SDS011;9989;48.962;9.182;2023-02-28T17:12:23;22.87;;;14.47;;
19679;SDS011;9989;48.962;9.182;2023-02-28T17:14:48;21.87;;;14.23;;
19679;SDS011;9989;48.962;9.182;2023-02-28T17:17:18;23.83;;;14.37;;
19679;SDS011;9989;48.962;9.182;2023-02-28T17:19:46;23.10;;;14.27;;
19679;SDS011;9989;48.962;9.182;2023-02-28T17:22:12;20.63;;;13.50;;
19679;SDS011;9989;48.962;9.182;2023-02-28T17:24:38;22.57;;;15.80;;
19679;SDS011;9989;48.962;9.182;2023-02-28T17:27:04;24.93;;;15.13;;
19679;SDS011;9989;48.962;9.182;2023-02-28T17:29:30;23.37;;;14.40;;
19679;SDS011;9989;48.962;9.182;2023-02-28T17:31:56;24.17;;;15.80;;
19679;SDS011;9989;48.962;9.182;2023-02-28T17:34:21;26.77;;;16.10;;
19679;SDS011;9989;48.962;9.182;2023-02-28T17:36:48;27.87;;;17.40;;
19679;SDS011;9989;48.962;9.182;2023-02-28T17:39:15;39.80;;;26.53;;
19679;SDS011;9989;48.962;9.182;2023-02-28T17:41:49;37.13;;;26.10;;
19679;SDS011;9989;48.962;9.182;2023-02-28T17:44:16;32.10;;;21.67;;